createdAt,value
2024-02-13T00:01:40.976Z,3.35
2024-02-13T00:04:43.905Z,3.35
2024-02-13T00:07:45.737Z,3.36
2024-02-13T00:10:47.622Z,3.40
2024-02-13T00:13:49.304Z,3.39
2024-02-13T00:16:50.900Z,3.39
2024-02-13T00:19:54.911Z,3.39
2024-02-13T00:22:56.914Z,3.40
2024-02-13T00:25:58.450Z,3.38
2024-02-13T00:29:01.465Z,3.36
2024-02-13T00:32:03.346Z,3.36
2024-02-13T00:35:06.940Z,3.33
2024-02-13T00:38:09.270Z,3.35
2024-02-13T00:41:11.298Z,3.34
2024-02-13T00:44:13.193Z,3.36
2024-02-13T00:47:14.923Z,3.38
2024-02-13T00:50:17.985Z,3.39
2024-02-13T00:53:19.859Z,3.39
2024-02-13T00:56:22.854Z,3.38
2024-02-13T00:59:24.488Z,3.37
2024-02-13T01:02:27.158Z,3.38
2024-02-13T01:05:33.816Z,3.39
2024-02-13T01:08:35.766Z,3.38
2024-02-13T01:11:37.556Z,3.36
2024-02-13T01:14:40.203Z,3.36
2024-02-13T01:17:42.796Z,3.35
2024-02-13T01:20:45.915Z,3.35
2024-02-13T01:23:48.216Z,3.33
2024-02-13T01:26:49.917Z,3.34
2024-02-13T01:29:51.553Z,3.31
2024-02-13T01:32:53.208Z,3.28
2024-02-13T01:35:57.247Z,3.27
2024-02-13T01:39:01.195Z,3.26
2024-02-13T01:42:02.955Z,3.25
2024-02-13T01:45:06.041Z,3.24
2024-02-13T01:48:11.601Z,3.22
2024-02-13T01:51:15.100Z,3.23
2024-02-13T01:54:17.396Z,3.20
2024-02-13T01:57:20.119Z,3.16
2024-02-13T02:00:25.018Z,3.14
2024-02-13T02:03:32.097Z,3.13
2024-02-13T02:06:36.121Z,3.13
2024-02-13T02:09:37.836Z,3.13
2024-02-13T02:12:40.864Z,3.09
2024-02-13T02:15:42.514Z,3.05
2024-02-13T02:18:44.504Z,3.01
2024-02-13T02:21:48.522Z,3.00
2024-02-13T02:24:50.085Z,3.01
2024-02-13T02:27:53.020Z,3.02
2024-02-13T02:30:55.307Z,3.03
2024-02-13T02:33:57.421Z,3.04
2024-02-13T02:36:59.136Z,3.02
2024-02-13T02:40:00.881Z,3.00
2024-02-13T02:43:04.016Z,3.00
2024-02-13T02:46:06.166Z,2.99
2024-02-13T02:49:08.017Z,2.97
2024-02-13T02:52:09.649Z,2.99
2024-02-13T02:55:11.615Z,3.01
2024-02-13T02:58:14.893Z,3.01
2024-02-13T03:01:16.791Z,2.96
2024-02-13T03:04:18.488Z,2.97
2024-02-13T03:07:20.103Z,2.98
2024-02-13T03:10:21.725Z,3.00
2024-02-13T03:13:24.698Z,3.00
2024-02-13T03:16:26.893Z,2.97
2024-02-13T03:19:28.536Z,2.97
2024-02-13T03:22:32.903Z,2.97
2024-02-13T03:25:34.562Z,3.00
2024-02-13T03:28:37.673Z,3.00
2024-02-13T03:31:39.326Z,3.01
2024-02-13T03:34:40.940Z,2.96
2024-02-13T03:37:42.652Z,2.95
2024-02-13T03:40:44.253Z,2.88
2024-02-13T03:43:48.899Z,2.87
2024-02-13T03:46:51.987Z,2.84
2024-02-13T03:49:53.653Z,2.81
2024-02-13T03:52:55.317Z,2.81
2024-02-13T03:55:56.980Z,2.84
2024-02-13T03:59:00.064Z,2.84
2024-02-13T04:02:01.849Z,2.91
2024-02-13T04:05:03.555Z,2.89
2024-02-13T04:08:05.696Z,2.94
2024-02-13T04:11:07.288Z,2.97
2024-02-13T04:14:10.283Z,2.98
2024-02-13T04:17:11.998Z,3.01
2024-02-13T04:20:14.381Z,3.00
2024-02-13T04:23:16.104Z,2.98
2024-02-13T04:26:30.237Z,3.00
2024-02-13T04:29:41.360Z,2.98
2024-02-13T04:32:43.274Z,2.94
2024-02-13T04:35:45.105Z,2.93
2024-02-13T04:38:47.090Z,2.97
2024-02-13T04:41:48.937Z,2.97
2024-02-13T04:44:51.924Z,2.96
2024-02-13T04:47:54.172Z,2.96
2024-02-13T04:50:55.914Z,2.96
2024-02-13T04:53:57.788Z,2.97
2024-02-13T04:57:00.724Z,3.01
2024-02-13T05:00:15.091Z,3.05
2024-02-13T05:03:27.029Z,3.07
2024-02-13T05:06:47.253Z,3.05
2024-02-13T05:09:48.930Z,2.99
2024-02-13T05:12:50.571Z,2.95
2024-02-13T05:15:53.623Z,2.90
2024-02-13T05:18:56.034Z,2.89
2024-02-13T05:21:57.959Z,2.85
2024-02-13T05:25:02.306Z,2.80
2024-02-13T05:28:04.176Z,2.80
2024-02-13T05:31:08.830Z,2.71
2024-02-13T05:34:11.422Z,2.67
2024-02-13T05:37:13.159Z,2.61
2024-02-13T05:40:14.874Z,2.55
2024-02-13T05:43:17.563Z,2.55
2024-02-13T05:46:21.165Z,2.53
2024-02-13T05:49:23.218Z,2.48
2024-02-13T05:52:24.931Z,2.44
2024-02-13T05:55:26.520Z,2.38
2024-02-13T05:58:29.707Z,2.38
2024-02-13T06:01:33.296Z,2.39
2024-02-13T06:04:36.193Z,2.37
2024-02-13T06:07:37.809Z,2.36
2024-02-13T06:10:40.905Z,2.36
2024-02-13T06:13:45.479Z,2.31
2024-02-13T06:16:48.475Z,2.31
2024-02-13T06:19:50.058Z,2.31
2024-02-13T06:22:51.720Z,2.27
2024-02-13T06:25:53.390Z,2.20
2024-02-13T06:28:56.210Z,2.15
2024-02-13T06:31:59.796Z,2.10
2024-02-13T06:35:01.487Z,2.12
2024-02-13T06:38:03.333Z,2.14
2024-02-13T06:41:09.631Z,2.18
2024-02-13T06:44:11.246Z,2.17
2024-02-13T06:47:14.471Z,2.19
2024-02-13T06:50:16.503Z,2.24
2024-02-13T06:53:18.217Z,2.25
2024-02-13T06:56:19.876Z,2.28
2024-02-13T06:59:21.564Z,2.34
2024-02-13T07:02:24.972Z,2.37
2024-02-13T07:05:27.182Z,2.41
2024-02-13T07:08:29.147Z,2.43
2024-02-13T07:11:31.274Z,2.46
2024-02-13T07:14:33.152Z,2.51
2024-02-13T07:17:47.798Z,2.54
2024-02-13T07:21:00.850Z,2.54
2024-02-13T07:24:05.564Z,2.56
2024-02-13T07:27:08.348Z,2.60
2024-02-13T07:30:11.897Z,2.49
2024-02-13T07:33:15.144Z,2.63
2024-02-13T07:36:17.796Z,2.68
2024-02-13T07:39:19.388Z,2.71
2024-02-13T07:42:21.371Z,2.77
2024-02-13T07:45:24.061Z,2.79
2024-02-13T07:48:27.212Z,2.82
2024-02-13T07:51:28.962Z,2.85
2024-02-13T07:54:31.083Z,2.86
2024-02-13T07:57:34.209Z,2.88
2024-02-13T08:00:37.575Z,2.90
2024-02-13T08:03:40.734Z,2.90
2024-02-13T08:06:42.827Z,2.91
2024-02-13T08:09:44.492Z,2.92
2024-02-13T08:12:46.563Z,2.92
2024-02-13T08:15:50.791Z,2.95
2024-02-13T08:18:53.962Z,2.98
2024-02-13T08:21:55.642Z,3.02
2024-02-13T08:25:02.215Z,3.05
2024-02-13T08:28:04.338Z,3.07
2024-02-13T08:31:06.091Z,3.10
2024-02-13T08:34:09.373Z,3.11
2024-02-13T08:37:12.754Z,3.16
2024-02-13T08:40:15.708Z,3.18
2024-02-13T08:43:17.916Z,3.20
2024-02-13T08:46:23.762Z,3.24
2024-02-13T08:49:27.253Z,3.27
2024-02-13T08:52:29.209Z,3.30
2024-02-13T08:55:30.921Z,3.34
2024-02-13T08:58:32.602Z,3.38
2024-02-13T09:01:34.682Z,3.43
2024-02-13T09:04:37.771Z,3.48
2024-02-13T09:07:39.741Z,3.50
2024-02-13T09:10:41.910Z,3.49
2024-02-13T09:13:46.164Z,3.49
2024-02-13T09:16:47.823Z,3.52
2024-02-13T09:19:50.839Z,3.54
2024-02-13T09:22:52.899Z,3.56
2024-02-13T09:25:56.828Z,3.59
2024-02-13T09:28:59.691Z,3.60
2024-02-13T09:32:01.385Z,3.65
2024-02-13T09:35:05.879Z,3.69
2024-02-13T09:38:08.044Z,3.75
2024-02-13T09:41:11.814Z,3.80
2024-02-13T09:44:15.046Z,3.89
2024-02-13T09:47:17.313Z,3.97
2024-02-13T09:50:20.936Z,4.10
2024-02-13T09:53:25.976Z,4.19
2024-02-13T09:56:27.790Z,4.22
2024-02-13T09:59:31.250Z,4.25
2024-02-13T10:02:33.243Z,4.38
2024-02-13T10:05:36.601Z,4.45
2024-02-13T10:08:39.180Z,4.57
2024-02-13T10:11:43.022Z,4.64
2024-02-13T10:14:44.832Z,4.70
2024-02-13T10:17:46.786Z,4.75
2024-02-13T10:20:50.065Z,4.71
2024-02-13T10:23:54.796Z,4.87
2024-02-13T10:26:56.737Z,4.76
2024-02-13T10:29:58.539Z,4.74
2024-02-13T10:33:01.099Z,4.86
2024-02-13T10:36:04.669Z,4.99
2024-02-13T10:39:10.491Z,5.11
2024-02-13T10:42:16.431Z,5.18
2024-02-13T10:45:18.452Z,5.18
2024-02-13T10:48:24.441Z,5.16
2024-02-13T10:51:28.864Z,5.08
2024-02-13T10:54:32.590Z,5.00
2024-02-13T10:57:36.668Z,5.03
2024-02-13T11:00:40.898Z,5.08
2024-02-13T11:03:43.192Z,5.10
2024-02-13T11:06:46.504Z,5.16
2024-02-13T11:09:48.479Z,5.21
2024-02-13T11:12:54.477Z,5.17
2024-02-13T11:15:59.282Z,5.15
2024-02-13T11:19:04.517Z,5.24
2024-02-13T11:22:11.016Z,5.24
2024-02-13T11:25:13.413Z,5.21
2024-02-13T11:28:16.100Z,5.17
2024-02-13T11:31:18.335Z,5.15
2024-02-13T11:34:20.708Z,5.12
2024-02-13T11:37:28.287Z,5.09
2024-02-13T11:40:29.910Z,5.14
2024-02-13T11:43:31.787Z,5.17
2024-02-13T11:46:33.396Z,5.07
2024-02-13T11:49:36.194Z,5.11
2024-02-13T11:52:39.926Z,5.35
2024-02-13T11:55:41.539Z,5.36
2024-02-13T11:58:43.798Z,5.38
2024-02-13T12:01:45.819Z,5.58
2024-02-13T12:04:47.483Z,5.57
2024-02-13T12:07:50.613Z,5.45
2024-02-13T12:10:52.913Z,5.44
2024-02-13T12:13:56.124Z,5.51
2024-02-13T12:17:02.606Z,5.52
2024-02-13T12:20:05.101Z,5.49
2024-02-13T12:23:13.488Z,5.50
2024-02-13T12:26:17.922Z,5.71
2024-02-13T12:29:20.337Z,5.62
2024-02-13T12:32:23.085Z,5.65
2024-02-13T12:35:33.433Z,5.50
2024-02-13T12:38:38.314Z,5.55
2024-02-13T12:41:40.433Z,5.49
2024-02-13T12:44:42.617Z,5.55
2024-02-13T12:47:45.407Z,5.63
2024-02-13T12:50:47.344Z,5.62
2024-02-13T12:53:52.485Z,5.56
2024-02-13T12:56:54.505Z,5.49
2024-02-13T12:59:57.132Z,5.52
2024-02-13T13:03:00.403Z,5.51
2024-02-13T13:06:02.158Z,5.62
2024-02-13T13:09:16.131Z,5.73
2024-02-13T13:12:22.018Z,5.80
2024-02-13T13:15:25.681Z,5.95
2024-02-13T13:18:30.314Z,5.99
2024-02-13T13:21:32.335Z,5.99
2024-02-13T13:24:35.430Z,5.97
2024-02-13T13:27:37.288Z,5.96
2024-02-13T13:30:42.070Z,5.97
2024-02-13T13:33:43.825Z,5.99
2024-02-13T13:36:45.848Z,5.93
2024-02-13T13:39:50.085Z,5.89
2024-02-13T13:42:52.064Z,5.98
2024-02-13T13:45:55.807Z,6.03
2024-02-13T13:48:58.577Z,6.00
2024-02-13T13:52:01.100Z,6.00
2024-02-13T13:55:04.497Z,6.08
2024-02-13T13:58:06.469Z,6.16
2024-02-13T14:01:08.196Z,6.22
2024-02-13T14:04:12.848Z,6.21
2024-02-13T14:07:15.981Z,6.26
2024-02-13T14:10:19.047Z,6.21
2024-02-13T14:13:20.664Z,6.15
2024-02-13T14:16:22.248Z,6.14
2024-02-13T14:19:24.324Z,6.16
2024-02-13T14:22:28.049Z,6.21
2024-02-13T14:25:31.332Z,6.24
2024-02-13T14:28:33.245Z,6.08
2024-02-13T14:31:35.457Z,6.05
2024-02-13T14:34:37.138Z,6.09
2024-02-13T14:37:38.757Z,6.06
2024-02-13T14:40:41.707Z,5.99
2024-02-13T14:43:43.438Z,5.94
2024-02-13T14:46:45.451Z,5.90
2024-02-13T14:49:47.715Z,5.89
2024-02-13T14:52:49.979Z,5.90
2024-02-13T14:55:52.966Z,5.90
2024-02-13T14:58:54.812Z,5.88
2024-02-13T15:01:56.494Z,5.86
2024-02-13T15:04:58.304Z,5.86
2024-02-13T15:08:00.039Z,5.87
2024-02-13T15:11:05.120Z,5.86
2024-02-13T15:14:08.200Z,5.91
2024-02-13T15:17:11.384Z,5.91
2024-02-13T15:20:15.753Z,5.91
2024-02-13T15:23:17.630Z,5.88
2024-02-13T15:26:20.709Z,5.83
2024-02-13T15:29:24.714Z,5.75
2024-02-13T15:32:26.533Z,5.71
2024-02-13T15:35:42.185Z,5.69
2024-02-13T15:39:02.522Z,5.67
2024-02-13T15:42:24.192Z,5.63
2024-02-13T15:45:44.627Z,5.64
2024-02-13T15:48:48.589Z,5.57
2024-02-13T15:51:53.531Z,5.55
2024-02-13T15:54:57.049Z,5.51
2024-02-13T15:58:00.087Z,5.44
2024-02-13T16:01:02.886Z,5.48
2024-02-13T16:04:05.578Z,5.44
2024-02-13T16:07:11.476Z,5.40
2024-02-13T16:10:15.853Z,5.35
2024-02-13T16:13:20.026Z,5.34
2024-02-13T16:16:21.791Z,5.35
2024-02-13T16:19:24.928Z,5.31
2024-02-13T16:22:28.257Z,5.22
2024-02-13T16:25:35.277Z,5.21
2024-02-13T16:28:38.359Z,5.19
2024-02-13T16:31:40.335Z,5.15
2024-02-13T16:34:42.612Z,5.13
2024-02-13T16:37:45.023Z,5.19
2024-02-13T16:40:46.769Z,5.15
2024-02-13T16:43:50.397Z,5.12
2024-02-13T16:46:52.332Z,5.12
2024-02-13T16:49:58.912Z,5.09
2024-02-13T16:53:00.817Z,5.07
2024-02-13T16:56:03.050Z,5.04
2024-02-13T16:59:06.252Z,5.03
2024-02-13T17:02:11.187Z,5.03
2024-02-13T17:05:13.372Z,5.00
2024-02-13T17:08:15.614Z,4.96
2024-02-13T17:11:18.503Z,4.94
2024-02-13T17:14:24.540Z,4.90
2024-02-13T17:17:26.351Z,4.90
2024-02-13T17:20:28.872Z,4.88
2024-02-13T17:23:30.577Z,4.85
2024-02-13T17:26:32.709Z,4.82
2024-02-13T17:29:35.772Z,4.81
2024-02-13T17:32:37.504Z,4.75
2024-02-13T17:35:39.345Z,4.74
2024-02-13T17:38:40.999Z,4.73
2024-02-13T17:41:42.696Z,4.70
2024-02-13T17:44:45.907Z,4.68
2024-02-13T17:47:47.539Z,4.66
2024-02-13T17:50:49.379Z,4.62
2024-02-13T17:53:51.167Z,4.65
2024-02-13T17:56:53.174Z,4.63
2024-02-13T17:59:57.666Z,4.58
2024-02-13T18:02:59.330Z,4.59
2024-02-13T18:06:03.132Z,4.55
2024-02-13T18:09:05.133Z,4.52
2024-02-13T18:12:07.422Z,4.54
2024-02-13T18:15:10.714Z,4.50
2024-02-13T18:18:12.547Z,4.51
2024-02-13T18:21:15.615Z,4.48
2024-02-13T18:24:17.508Z,4.47
2024-02-13T18:27:19.440Z,4.44
2024-02-13T18:30:22.924Z,4.49
2024-02-13T18:33:24.677Z,4.49
2024-02-13T18:36:26.410Z,4.45
2024-02-13T18:39:28.462Z,4.44
2024-02-13T18:42:30.133Z,4.40
2024-02-13T18:45:34.724Z,4.38
2024-02-13T18:48:37.492Z,4.48
2024-02-13T18:51:39.232Z,4.48
2024-02-13T18:54:40.922Z,4.45
2024-02-13T18:57:42.612Z,4.43
2024-02-13T19:00:46.025Z,4.44
2024-02-13T19:03:48.441Z,4.46
2024-02-13T19:06:50.602Z,4.47
2024-02-13T19:09:52.307Z,4.49
2024-02-13T19:12:56.120Z,4.50
2024-02-13T19:15:59.060Z,4.50
2024-02-13T19:19:04.683Z,4.49
2024-02-13T19:22:06.706Z,4.49
2024-02-13T19:25:08.417Z,4.48
2024-02-13T19:28:10.072Z,4.50
2024-02-13T19:31:19.058Z,4.52
2024-02-13T19:34:20.770Z,4.53
2024-02-13T19:37:22.662Z,4.52
2024-02-13T19:40:24.902Z,4.60
2024-02-13T19:43:26.805Z,4.62
2024-02-13T19:46:30.669Z,4.65
2024-02-13T19:49:34.972Z,4.65
2024-02-13T19:52:37.676Z,4.65
2024-02-13T19:55:39.470Z,4.67
2024-02-13T19:58:41.018Z,4.70
2024-02-13T20:01:44.069Z,4.70
2024-02-13T20:04:45.675Z,4.70
2024-02-13T20:07:47.290Z,4.77
2024-02-13T20:10:48.973Z,4.79
2024-02-13T20:13:50.591Z,4.78
2024-02-13T20:16:53.798Z,4.76
2024-02-13T20:19:55.502Z,4.76
2024-02-13T20:22:57.306Z,4.77
2024-02-13T20:25:59.973Z,4.75
2024-02-13T20:29:01.580Z,4.76
2024-02-13T20:32:04.951Z,4.76
2024-02-13T20:35:08.477Z,4.79
2024-02-13T20:38:10.897Z,4.80
2024-02-13T20:41:12.583Z,4.79
2024-02-13T20:44:15.531Z,4.81
2024-02-13T20:47:18.561Z,4.81
2024-02-13T20:50:21.033Z,4.79
2024-02-13T20:53:25.812Z,4.78
2024-02-13T20:56:28.276Z,4.76
2024-02-13T20:59:31.262Z,4.73
2024-02-13T21:02:34.287Z,4.75
2024-02-13T21:05:37.912Z,4.77
2024-02-13T21:08:39.906Z,4.74
2024-02-13T21:11:42.180Z,4.71
2024-02-13T21:14:44.370Z,4.69
2024-02-13T21:17:47.457Z,4.68
2024-02-13T21:21:08.906Z,4.68
2024-02-13T21:24:11.096Z,4.68
2024-02-13T21:27:12.826Z,4.65
2024-02-13T21:30:14.710Z,4.65
2024-02-13T21:33:17.771Z,4.63
2024-02-13T21:36:19.463Z,4.63
2024-02-13T21:39:22.181Z,4.66
2024-02-13T21:42:23.813Z,4.63
2024-02-13T21:45:28.116Z,4.65
2024-02-13T21:48:31.325Z,4.65
2024-02-13T21:51:33.040Z,4.65
2024-02-13T21:54:36.009Z,4.64
2024-02-13T21:57:37.605Z,4.64
2024-02-13T22:00:40.943Z,4.63
2024-02-13T22:03:44.297Z,4.64
2024-02-13T22:06:46.118Z,4.67
2024-02-13T22:09:50.510Z,4.65
2024-02-13T22:12:52.150Z,4.63
2024-02-13T22:15:54.462Z,4.61
2024-02-13T22:18:57.536Z,4.56
2024-02-13T22:21:59.198Z,4.49
2024-02-13T22:25:01.614Z,4.48
2024-02-13T22:28:04.892Z,4.48
2024-02-13T22:31:06.657Z,4.44
2024-02-13T22:34:09.765Z,4.42
2024-02-13T22:37:11.511Z,4.42
2024-02-13T22:40:13.138Z,4.46
2024-02-13T22:43:16.840Z,4.47
2024-02-13T22:46:18.718Z,4.52
2024-02-13T22:49:21.776Z,4.55
2024-02-13T22:52:23.602Z,4.57
2024-02-13T22:55:25.454Z,4.56
2024-02-13T22:58:27.341Z,4.56
2024-02-13T23:01:32.535Z,4.54
2024-02-13T23:04:35.794Z,4.52
2024-02-13T23:07:37.463Z,4.54
2024-02-13T23:10:39.205Z,4.53
2024-02-13T23:13:45.625Z,4.53
2024-02-13T23:16:51.662Z,4.57
2024-02-13T23:19:54.649Z,4.56
2024-02-13T23:22:56.566Z,4.57
2024-02-13T23:25:58.154Z,4.48
2024-02-13T23:28:59.779Z,4.44
2024-02-13T23:32:01.347Z,4.45
2024-02-13T23:35:04.737Z,4.45
2024-02-13T23:38:07.265Z,4.43
2024-02-13T23:41:08.862Z,4.40
2024-02-13T23:44:10.904Z,4.35
2024-02-13T23:47:13.176Z,4.41
2024-02-13T23:50:18.279Z,4.39
2024-02-13T23:53:19.900Z,4.39
2024-02-13T23:56:21.482Z,4.37
2024-02-13T23:59:23.485Z,4.36
